Fesco Vladimir — 5BSL2 — position and weather

sailwx.info

Track history (hours):
 
Tides and Currents Weather Stations Pressure Air Temp Water Temp Dewpoint Dewpoint Depression Visibility Wind Speed Wind Dir Waves Ship Positions

Fesco Vladimir

Last reported at 2014-Aug-27 06:33 UTC. Time now 2014-Aug-30 20:34 UTC.
Position N 30°35' W 011°37'.

Length 77 m; draft 3.8 m.

Type: Dredging. MMSI: 209777000.

Date/timePositionNaut miles runAvg speedWind from/ knotsBaromVisibWave heightAir tempDewpointWater temp
2014-Aug-27 06:33N 30°35' W 011°37'3919.6
2014-Aug-27 04:33N 31°06' W 011°11'2019.6
2014-Aug-27 03:33N 31°22' W 010°57'1919.3
2014-Aug-27 02:33N 31°38' W 010°44'2019.6
2014-Aug-27 01:33N 31°54' W 010°31'2019.6
2014-Aug-27 00:33N 32°10' W 010°17'13919.8
2014-Aug-26 17:32N 33°54' W 008°27'4819.8
2014-Aug-26 15:05N 34°28' W 007°45'3419.6
2014-Aug-26 13:22N 34°52' W 007°16'  
2014-Aug-23 23:17N 32°41' W 010°45'  
2014-Aug-21 02:33N 29°54' W 012°04'1614.6
2014-Aug-21 01:26N 29°40' W 012°14'1314.6
2014-Aug-21 00:34N 29°30' W 012°22'2814.1
2014-Aug-20 22:34N 29°12' W 012°47'2510.7
2014-Aug-20 20:15N 28°54' W 013°07'1 2.1
2014-Aug-20 19:31N 28°55' W 013°05'  
Track history (hours):
 
Tides and Currents Weather Stations Pressure Air Temp Water Temp Dewpoint Dewpoint Depression Visibility Wind Speed Wind Dir Waves Ship Positions

Fesco Vladimir

Last reported at 2014-Aug-27 06:33 UTC. Time now 2014-Aug-30 20:34 UTC.
Position N 30°35' W 011°37'.

Length 77 m; draft 3.8 m.

Type: Dredging. MMSI: 209777000.

Date/timePositionNaut miles runAvg speedWind from/ knotsBaromVisibWave heightAir tempDewpointWater temp
2014-Aug-27 06:33N 30°35' W 011°37'3919.6
2014-Aug-27 04:33N 31°06' W 011°11'2019.6
2014-Aug-27 03:33N 31°22' W 010°57'1919.3
2014-Aug-27 02:33N 31°38' W 010°44'2019.6
2014-Aug-27 01:33N 31°54' W 010°31'2019.6
2014-Aug-27 00:33N 32°10' W 010°17'13919.8
2014-Aug-26 17:32N 33°54' W 008°27'4819.8
2014-Aug-26 15:05N 34°28' W 007°45'3419.6
2014-Aug-26 13:22N 34°52' W 007°16'  
2014-Aug-23 23:17N 32°41' W 010°45'  
2014-Aug-21 02:33N 29°54' W 012°04'1614.6
2014-Aug-21 01:26N 29°40' W 012°14'1314.6
2014-Aug-21 00:34N 29°30' W 012°22'2814.1
2014-Aug-20 22:34N 29°12' W 012°47'2510.7
2014-Aug-20 20:15N 28°54' W 013°07'1 2.1
2014-Aug-20 19:31N 28°55' W 013°05'  

Dump ship's entire track history